sensor_id;sensor_type;location;lat;lon;timestamp;P1;durP1;ratioP1;P2;durP2;ratioP2
13051;SDS011;6592;47.484;9.726;2023-08-24T00:00:27;9.23;;;4.47;;
13051;SDS011;6592;47.484;9.726;2023-08-24T00:02:55;8.68;;;5.10;;
13051;SDS011;6592;47.484;9.726;2023-08-24T00:05:24;7.43;;;4.18;;
13051;SDS011;6592;47.484;9.726;2023-08-24T00:07:52;8.38;;;5.15;;
13051;SDS011;6592;47.484;9.726;2023-08-24T00:10:20;8.75;;;4.65;;
13051;SDS011;6592;47.484;9.726;2023-08-24T00:12:50;10.43;;;4.47;;
13051;SDS011;6592;47.484;9.726;2023-08-24T00:15:18;8.57;;;5.13;;
13051;SDS011;6592;47.484;9.726;2023-08-24T00:17:46;9.90;;;4.97;;
13051;SDS011;6592;47.484;9.726;2023-08-24T00:20:15;7.20;;;4.80;;
13051;SDS011;6592;47.484;9.726;2023-08-24T00:22:44;7.95;;;4.68;;
13051;SDS011;6592;47.484;9.726;2023-08-24T00:25:12;9.77;;;4.65;;
13051;SDS011;6592;47.484;9.726;2023-08-24T00:27:41;7.07;;;4.35;;
13051;SDS011;6592;47.484;9.726;2023-08-24T00:30:12;7.75;;;4.68;;
13051;SDS011;6592;47.484;9.726;2023-08-24T00:32:40;6.68;;;4.50;;
13051;SDS011;6592;47.484;9.726;2023-08-24T00:35:08;8.85;;;4.65;;
13051;SDS011;6592;47.484;9.726;2023-08-24T00:37:37;7.80;;;4.57;;
13051;SDS011;6592;47.484;9.726;2023-08-24T00:40:06;7.75;;;4.40;;
13051;SDS011;6592;47.484;9.726;2023-08-24T00:42:37;7.38;;;4.63;;
13051;SDS011;6592;47.484;9.726;2023-08-24T00:45:07;6.85;;;4.68;;
13051;SDS011;6592;47.484;9.726;2023-08-24T00:47:38;8.55;;;4.75;;
13051;SDS011;6592;47.484;9.726;2023-08-24T00:50:09;11.13;;;5.22;;
13051;SDS011;6592;47.484;9.726;2023-08-24T00:52:38;10.05;;;5.10;;
13051;SDS011;6592;47.484;9.726;2023-08-24T00:55:08;8.10;;;5.20;;
13051;SDS011;6592;47.484;9.726;2023-08-24T00:57:37;7.50;;;4.85;;
13051;SDS011;6592;47.484;9.726;2023-08-24T01:00:07;7.40;;;4.57;;
13051;SDS011;6592;47.484;9.726;2023-08-24T01:02:39;8.15;;;4.60;;
13051;SDS011;6592;47.484;9.726;2023-08-24T01:05:07;8.57;;;4.40;;
13051;SDS011;6592;47.484;9.726;2023-08-24T01:07:37;7.38;;;4.20;;
13051;SDS011;6592;47.484;9.726;2023-08-24T01:10:07;12.93;;;4.80;;
13051;SDS011;6592;47.484;9.726;2023-08-24T01:12:40;6.80;;;4.20;;
13051;SDS011;6592;47.484;9.726;2023-08-24T01:15:16;9.15;;;4.53;;
13051;SDS011;6592;47.484;9.726;2023-08-24T01:17:48;8.38;;;4.57;;
13051;SDS011;6592;47.484;9.726;2023-08-24T01:20:19;7.78;;;4.88;;
13051;SDS011;6592;47.484;9.726;2023-08-24T01:22:50;8.88;;;4.82;;
13051;SDS011;6592;47.484;9.726;2023-08-24T01:25:29;10.57;;;5.10;;
13051;SDS011;6592;47.484;9.726;2023-08-24T01:28:06;11.05;;;4.60;;
13051;SDS011;6592;47.484;9.726;2023-08-24T01:30:36;10.50;;;5.32;;
13051;SDS011;6592;47.484;9.726;2023-08-24T01:33:04;9.88;;;5.28;;
13051;SDS011;6592;47.484;9.726;2023-08-24T01:35:38;8.18;;;4.63;;
13051;SDS011;6592;47.484;9.726;2023-08-24T01:38:07;8.95;;;5.05;;
13051;SDS011;6592;47.484;9.726;2023-08-24T01:40:43;11.02;;;4.90;;
13051;SDS011;6592;47.484;9.726;2023-08-24T01:43:27;7.40;;;4.80;;
13051;SDS011;6592;47.484;9.726;2023-08-24T01:46:09;8.00;;;5.00;;
13051;SDS011;6592;47.484;9.726;2023-08-24T01:48:42;8.93;;;4.80;;
13051;SDS011;6592;47.484;9.726;2023-08-24T01:51:12;8.88;;;4.32;;
13051;SDS011;6592;47.484;9.726;2023-08-24T01:53:41;10.00;;;4.50;;
13051;SDS011;6592;47.484;9.726;2023-08-24T01:56:11;12.57;;;4.78;;
13051;SDS011;6592;47.484;9.726;2023-08-24T01:58:41;7.70;;;4.78;;
13051;SDS011;6592;47.484;9.726;2023-08-24T02:01:09;8.55;;;4.70;;
13051;SDS011;6592;47.484;9.726;2023-08-24T02:03:39;9.38;;;4.97;;
13051;SDS011;6592;47.484;9.726;2023-08-24T02:06:07;8.07;;;4.53;;
13051;SDS011;6592;47.484;9.726;2023-08-24T02:08:36;9.35;;;4.60;;
13051;SDS011;6592;47.484;9.726;2023-08-24T02:11:04;8.27;;;4.65;;
13051;SDS011;6592;47.484;9.726;2023-08-24T02:13:33;10.20;;;4.80;;
13051;SDS011;6592;47.484;9.726;2023-08-24T02:16:03;9.18;;;4.72;;
13051;SDS011;6592;47.484;9.726;2023-08-24T02:18:32;6.82;;;4.30;;
13051;SDS011;6592;47.484;9.726;2023-08-24T02:21:06;9.00;;;4.65;;
13051;SDS011;6592;47.484;9.726;2023-08-24T02:23:35;6.90;;;4.32;;
13051;SDS011;6592;47.484;9.726;2023-08-24T02:26:03;8.35;;;4.25;;
13051;SDS011;6592;47.484;9.726;2023-08-24T02:28:32;6.90;;;4.63;;
13051;SDS011;6592;47.484;9.726;2023-08-24T02:31:00;9.32;;;4.68;;
13051;SDS011;6592;47.484;9.726;2023-08-24T02:33:30;8.15;;;4.40;;
13051;SDS011;6592;47.484;9.726;2023-08-24T02:35:59;10.25;;;4.53;;
13051;SDS011;6592;47.484;9.726;2023-08-24T02:38:27;8.73;;;4.75;;
13051;SDS011;6592;47.484;9.726;2023-08-24T02:41:02;7.40;;;4.57;;
13051;SDS011;6592;47.484;9.726;2023-08-24T02:43:31;8.20;;;4.43;;
13051;SDS011;6592;47.484;9.726;2023-08-24T02:45:59;8.65;;;4.25;;
13051;SDS011;6592;47.484;9.726;2023-08-24T02:48:31;9.20;;;4.55;;
13051;SDS011;6592;47.484;9.726;2023-08-24T02:51:00;7.90;;;4.47;;
13051;SDS011;6592;47.484;9.726;2023-08-24T02:53:30;10.23;;;4.50;;
13051;SDS011;6592;47.484;9.726;2023-08-24T02:55:59;13.00;;;4.38;;
13051;SDS011;6592;47.484;9.726;2023-08-24T02:58:27;14.48;;;5.18;;
13051;SDS011;6592;47.484;9.726;2023-08-24T03:00:56;9.77;;;4.50;;
13051;SDS011;6592;47.484;9.726;2023-08-24T03:03:24;8.18;;;4.32;;
13051;SDS011;6592;47.484;9.726;2023-08-24T03:05:57;7.20;;;4.20;;
13051;SDS011;6592;47.484;9.726;2023-08-24T03:10:54;8.25;;;4.75;;
13051;SDS011;6592;47.484;9.726;2023-08-24T03:13:22;10.45;;;4.07;;
13051;SDS011;6592;47.484;9.726;2023-08-24T03:15:51;10.27;;;4.72;;
13051;SDS011;6592;47.484;9.726;2023-08-24T03:18:19;9.95;;;4.35;;
13051;SDS011;6592;47.484;9.726;2023-08-24T03:20:48;6.35;;;3.75;;
13051;SDS011;6592;47.484;9.726;2023-08-24T03:23:18;9.13;;;4.13;;
13051;SDS011;6592;47.484;9.726;2023-08-24T03:25:46;8.18;;;4.30;;
13051;SDS011;6592;47.484;9.726;2023-08-24T03:28:15;11.23;;;4.47;;
13051;SDS011;6592;47.484;9.726;2023-08-24T03:30:45;7.88;;;4.40;;
13051;SDS011;6592;47.484;9.726;2023-08-24T03:33:14;7.85;;;4.22;;
13051;SDS011;6592;47.484;9.726;2023-08-24T03:35:43;8.43;;;4.53;;
13051;SDS011;6592;47.484;9.726;2023-08-24T03:38:11;10.90;;;4.45;;
13051;SDS011;6592;47.484;9.726;2023-08-24T03:40:41;8.02;;;4.53;;
13051;SDS011;6592;47.484;9.726;2023-08-24T03:43:09;8.73;;;4.18;;
13051;SDS011;6592;47.484;9.726;2023-08-24T03:45:38;8.25;;;4.55;;
13051;SDS011;6592;47.484;9.726;2023-08-24T03:48:06;10.40;;;4.07;;
13051;SDS011;6592;47.484;9.726;2023-08-24T03:50:34;6.32;;;3.88;;
13051;SDS011;6592;47.484;9.726;2023-08-24T03:53:03;7.65;;;4.30;;
13051;SDS011;6592;47.484;9.726;2023-08-24T03:55:31;7.82;;;4.07;;
13051;SDS011;6592;47.484;9.726;2023-08-24T03:58:02;9.45;;;4.57;;
13051;SDS011;6592;47.484;9.726;2023-08-24T04:00:30;7.93;;;4.43;;
13051;SDS011;6592;47.484;9.726;2023-08-24T04:02:59;10.02;;;4.30;;
13051;SDS011;6592;47.484;9.726;2023-08-24T04:05:27;6.45;;;4.03;;
13051;SDS011;6592;47.484;9.726;2023-08-24T04:07:56;8.60;;;4.45;;
13051;SDS011;6592;47.484;9.726;2023-08-24T04:10:26;6.32;;;4.18;;
13051;SDS011;6592;47.484;9.726;2023-08-24T04:12:55;9.45;;;4.40;;
13051;SDS011;6592;47.484;9.726;2023-08-24T04:15:24;8.65;;;4.57;;
13051;SDS011;6592;47.484;9.726;2023-08-24T04:17:53;9.63;;;4.15;;
13051;SDS011;6592;47.484;9.726;2023-08-24T04:20:21;10.57;;;4.35;;
13051;SDS011;6592;47.484;9.726;2023-08-24T04:22:49;8.52;;;4.68;;
13051;SDS011;6592;47.484;9.726;2023-08-24T04:25:17;8.82;;;4.68;;
13051;SDS011;6592;47.484;9.726;2023-08-24T04:27:46;7.07;;;4.60;;
13051;SDS011;6592;47.484;9.726;2023-08-24T04:30:15;9.77;;;4.40;;
13051;SDS011;6592;47.484;9.726;2023-08-24T04:32:44;9.38;;;4.82;;
13051;SDS011;6592;47.484;9.726;2023-08-24T04:35:12;7.97;;;4.55;;
13051;SDS011;6592;47.484;9.726;2023-08-24T04:37:40;8.13;;;4.82;;
13051;SDS011;6592;47.484;9.726;2023-08-24T04:40:09;9.05;;;5.40;;
13051;SDS011;6592;47.484;9.726;2023-08-24T04:42:38;10.73;;;4.90;;
13051;SDS011;6592;47.484;9.726;2023-08-24T04:45:06;8.38;;;4.57;;
13051;SDS011;6592;47.484;9.726;2023-08-24T04:47:36;8.15;;;4.32;;
13051;SDS011;6592;47.484;9.726;2023-08-24T04:52:36;7.78;;;4.40;;
13051;SDS011;6592;47.484;9.726;2023-08-24T04:55:04;9.25;;;4.78;;
13051;SDS011;6592;47.484;9.726;2023-08-24T04:57:33;9.65;;;4.78;;
13051;SDS011;6592;47.484;9.726;2023-08-24T05:00:01;10.32;;;4.45;;
13051;SDS011;6592;47.484;9.726;2023-08-24T05:02:32;10.63;;;4.88;;
13051;SDS011;6592;47.484;9.726;2023-08-24T05:05:00;9.15;;;4.90;;
13051;SDS011;6592;47.484;9.726;2023-08-24T05:07:30;9.98;;;4.60;;
13051;SDS011;6592;47.484;9.726;2023-08-24T05:09:58;7.50;;;4.35;;
13051;SDS011;6592;47.484;9.726;2023-08-24T05:12:26;9.85;;;4.78;;
13051;SDS011;6592;47.484;9.726;2023-08-24T05:14:55;7.97;;;4.10;;
13051;SDS011;6592;47.484;9.726;2023-08-24T05:17:24;8.07;;;4.60;;
13051;SDS011;6592;47.484;9.726;2023-08-24T05:19:53;10.25;;;4.40;;
13051;SDS011;6592;47.484;9.726;2023-08-24T05:22:21;9.52;;;4.65;;
13051;SDS011;6592;47.484;9.726;2023-08-24T05:24:51;8.38;;;4.10;;
13051;SDS011;6592;47.484;9.726;2023-08-24T05:27:19;9.00;;;4.57;;
13051;SDS011;6592;47.484;9.726;2023-08-24T05:29:47;6.85;;;3.97;;
13051;SDS011;6592;47.484;9.726;2023-08-24T05:32:15;9.20;;;4.60;;
13051;SDS011;6592;47.484;9.726;2023-08-24T05:34:44;7.85;;;4.13;;
13051;SDS011;6592;47.484;9.726;2023-08-24T05:37:13;6.57;;;4.20;;
13051;SDS011;6592;47.484;9.726;2023-08-24T05:39:41;5.57;;;3.97;;
13051;SDS011;6592;47.484;9.726;2023-08-24T05:42:10;9.52;;;4.03;;
13051;SDS011;6592;47.484;9.726;2023-08-24T05:44:38;12.30;;;4.15;;
13051;SDS011;6592;47.484;9.726;2023-08-24T05:47:06;8.30;;;4.03;;
13051;SDS011;6592;47.484;9.726;2023-08-24T05:49:34;7.50;;;4.10;;
13051;SDS011;6592;47.484;9.726;2023-08-24T05:52:03;8.20;;;3.92;;
13051;SDS011;6592;47.484;9.726;2023-08-24T05:54:31;6.68;;;3.83;;
13051;SDS011;6592;47.484;9.726;2023-08-24T05:56:59;9.07;;;4.47;;
13051;SDS011;6592;47.484;9.726;2023-08-24T05:59:29;11.65;;;4.60;;
13051;SDS011;6592;47.484;9.726;2023-08-24T06:01:57;8.60;;;3.80;;
13051;SDS011;6592;47.484;9.726;2023-08-24T06:04:26;6.43;;;3.60;;
13051;SDS011;6592;47.484;9.726;2023-08-24T06:06:54;8.50;;;3.40;;
13051;SDS011;6592;47.484;9.726;2023-08-24T06:09:22;7.75;;;3.53;;
13051;SDS011;6592;47.484;9.726;2023-08-24T06:11:50;8.02;;;3.90;;
13051;SDS011;6592;47.484;9.726;2023-08-24T06:14:19;4.97;;;3.10;;
13051;SDS011;6592;47.484;9.726;2023-08-24T06:16:48;9.70;;;3.78;;
13051;SDS011;6592;47.484;9.726;2023-08-24T06:19:19;7.70;;;3.70;;
13051;SDS011;6592;47.484;9.726;2023-08-24T06:21:48;8.23;;;3.15;;
13051;SDS011;6592;47.484;9.726;2023-08-24T06:24:16;9.88;;;3.78;;
13051;SDS011;6592;47.484;9.726;2023-08-24T06:26:44;8.27;;;3.20;;
13051;SDS011;6592;47.484;9.726;2023-08-24T06:29:12;8.13;;;3.72;;
13051;SDS011;6592;47.484;9.726;2023-08-24T06:31:40;11.50;;;3.83;;
13051;SDS011;6592;47.484;9.726;2023-08-24T06:34:10;9.07;;;3.00;;
13051;SDS011;6592;47.484;9.726;2023-08-24T06:36:38;8.45;;;3.35;;
13051;SDS011;6592;47.484;9.726;2023-08-24T06:39:06;8.82;;;3.05;;
13051;SDS011;6592;47.484;9.726;2023-08-24T06:41:36;6.18;;;2.92;;
13051;SDS011;6592;47.484;9.726;2023-08-24T06:44:04;5.65;;;3.00;;
13051;SDS011;6592;47.484;9.726;2023-08-24T06:46:33;6.25;;;3.05;;
13051;SDS011;6592;47.484;9.726;2023-08-24T06:49:01;8.65;;;3.30;;
13051;SDS011;6592;47.484;9.726;2023-08-24T06:51:30;6.82;;;3.30;;
13051;SDS011;6592;47.484;9.726;2023-08-24T06:53:59;6.10;;;2.80;;
13051;SDS011;6592;47.484;9.726;2023-08-24T06:56:27;7.93;;;3.28;;
13051;SDS011;6592;47.484;9.726;2023-08-24T06:58:55;8.13;;;3.03;;
13051;SDS011;6592;47.484;9.726;2023-08-24T07:01:23;7.25;;;2.58;;
13051;SDS011;6592;47.484;9.726;2023-08-24T07:03:52;11.90;;;3.22;;
13051;SDS011;6592;47.484;9.726;2023-08-24T07:06:20;8.15;;;3.03;;
13051;SDS011;6592;47.484;9.726;2023-08-24T07:08:50;8.45;;;2.90;;
13051;SDS011;6592;47.484;9.726;2023-08-24T07:11:18;5.32;;;2.58;;
13051;SDS011;6592;47.484;9.726;2023-08-24T07:13:47;8.43;;;2.92;;
13051;SDS011;6592;47.484;9.726;2023-08-24T07:16:16;7.57;;;2.85;;
13051;SDS011;6592;47.484;9.726;2023-08-24T07:18:44;6.68;;;2.70;;
13051;SDS011;6592;47.484;9.726;2023-08-24T07:21:13;6.28;;;2.38;;
13051;SDS011;6592;47.484;9.726;2023-08-24T07:23:42;8.68;;;2.85;;
13051;SDS011;6592;47.484;9.726;2023-08-24T07:26:12;7.65;;;2.38;;
13051;SDS011;6592;47.484;9.726;2023-08-24T07:28:40;6.15;;;2.63;;
13051;SDS011;6592;47.484;9.726;2023-08-24T07:31:08;7.97;;;2.60;;
13051;SDS011;6592;47.484;9.726;2023-08-24T07:33:40;6.45;;;2.70;;
13051;SDS011;6592;47.484;9.726;2023-08-24T07:36:10;7.47;;;2.75;;
13051;SDS011;6592;47.484;9.726;2023-08-24T07:38:38;6.38;;;2.55;;
13051;SDS011;6592;47.484;9.726;2023-08-24T07:41:06;9.55;;;3.08;;
13051;SDS011;6592;47.484;9.726;2023-08-24T07:43:37;6.90;;;2.50;;
13051;SDS011;6592;47.484;9.726;2023-08-24T07:46:05;6.85;;;2.83;;
13051;SDS011;6592;47.484;9.726;2023-08-24T07:48:34;6.15;;;2.30;;
13051;SDS011;6592;47.484;9.726;2023-08-24T07:51:02;9.18;;;2.70;;
13051;SDS011;6592;47.484;9.726;2023-08-24T07:53:31;7.93;;;2.65;;
13051;SDS011;6592;47.484;9.726;2023-08-24T07:55:59;7.80;;;2.35;;
13051;SDS011;6592;47.484;9.726;2023-08-24T07:58:28;8.98;;;2.33;;
13051;SDS011;6592;47.484;9.726;2023-08-24T08:00:59;8.13;;;2.80;;
13051;SDS011;6592;47.484;9.726;2023-08-24T08:03:27;9.53;;;2.57;;
13051;SDS011;6592;47.484;9.726;2023-08-24T08:05:57;6.25;;;2.80;;
13051;SDS011;6592;47.484;9.726;2023-08-24T08:08:25;10.90;;;2.70;;
13051;SDS011;6592;47.484;9.726;2023-08-24T08:10:57;6.63;;;2.90;;
13051;SDS011;6592;47.484;9.726;2023-08-24T08:13:26;8.07;;;2.65;;
13051;SDS011;6592;47.484;9.726;2023-08-24T08:16:01;10.65;;;2.72;;
13051;SDS011;6592;47.484;9.726;2023-08-24T08:18:31;8.15;;;2.90;;
13051;SDS011;6592;47.484;9.726;2023-08-24T08:20:59;10.73;;;2.95;;
13051;SDS011;6592;47.484;9.726;2023-08-24T08:23:28;6.32;;;2.83;;
13051;SDS011;6592;47.484;9.726;2023-08-24T08:25:56;8.50;;;2.97;;
13051;SDS011;6592;47.484;9.726;2023-08-24T08:28:24;6.90;;;3.58;;
13051;SDS011;6592;47.484;9.726;2023-08-24T08:30:53;7.60;;;4.50;;
13051;SDS011;6592;47.484;9.726;2023-08-24T08:33:22;6.18;;;4.20;;
13051;SDS011;6592;47.484;9.726;2023-08-24T08:35:51;10.47;;;4.43;;
13051;SDS011;6592;47.484;9.726;2023-08-24T08:38:19;9.00;;;4.00;;
13051;SDS011;6592;47.484;9.726;2023-08-24T08:40:53;5.90;;;4.25;;
13051;SDS011;6592;47.484;9.726;2023-08-24T08:43:23;5.95;;;4.10;;
13051;SDS011;6592;47.484;9.726;2023-08-24T08:45:52;6.40;;;4.40;;
13051;SDS011;6592;47.484;9.726;2023-08-24T08:48:24;5.63;;;4.50;;
13051;SDS011;6592;47.484;9.726;2023-08-24T08:50:53;6.25;;;4.40;;
13051;SDS011;6592;47.484;9.726;2023-08-24T08:53:23;8.30;;;4.70;;
13051;SDS011;6592;47.484;9.726;2023-08-24T08:55:51;11.63;;;4.47;;
13051;SDS011;6592;47.484;9.726;2023-08-24T08:58:20;7.25;;;4.72;;
13051;SDS011;6592;47.484;9.726;2023-08-24T09:00:49;5.78;;;4.45;;
13051;SDS011;6592;47.484;9.726;2023-08-24T09:03:18;6.18;;;4.18;;
13051;SDS011;6592;47.484;9.726;2023-08-24T09:05:48;8.15;;;4.35;;
13051;SDS011;6592;47.484;9.726;2023-08-24T09:08:17;9.88;;;5.20;;
13051;SDS011;6592;47.484;9.726;2023-08-24T09:13:58;7.40;;;4.50;;
13051;SDS011;6592;47.484;9.726;2023-08-24T09:16:28;7.05;;;4.43;;
13051;SDS011;6592;47.484;9.726;2023-08-24T09:18:57;7.93;;;4.32;;
13051;SDS011;6592;47.484;9.726;2023-08-24T09:21:27;6.60;;;4.28;;
13051;SDS011;6592;47.484;9.726;2023-08-24T09:23:55;6.68;;;4.40;;
13051;SDS011;6592;47.484;9.726;2023-08-24T09:26:27;6.25;;;4.47;;
13051;SDS011;6592;47.484;9.726;2023-08-24T09:28:56;5.03;;;4.10;;
13051;SDS011;6592;47.484;9.726;2023-08-24T09:31:26;7.03;;;4.45;;
13051;SDS011;6592;47.484;9.726;2023-08-24T09:34:03;8.98;;;4.47;;
13051;SDS011;6592;47.484;9.726;2023-08-24T09:36:34;23.13;;;10.30;;
13051;SDS011;6592;47.484;9.726;2023-08-24T09:39:03;18.50;;;8.52;;
13051;SDS011;6592;47.484;9.726;2023-08-24T09:41:39;16.98;;;8.00;;
13051;SDS011;6592;47.484;9.726;2023-08-24T09:44:08;26.50;;;9.80;;
13051;SDS011;6592;47.484;9.726;2023-08-24T09:46:37;15.70;;;7.63;;
13051;SDS011;6592;47.484;9.726;2023-08-24T09:49:07;11.68;;;5.75;;
13051;SDS011;6592;47.484;9.726;2023-08-24T09:51:38;14.00;;;6.88;;
13051;SDS011;6592;47.484;9.726;2023-08-24T09:54:08;10.50;;;5.95;;
13051;SDS011;6592;47.484;9.726;2023-08-24T09:56:37;10.35;;;5.82;;
13051;SDS011;6592;47.484;9.726;2023-08-24T09:59:10;10.13;;;5.40;;
13051;SDS011;6592;47.484;9.726;2023-08-24T10:01:43;6.53;;;4.72;;
13051;SDS011;6592;47.484;9.726;2023-08-24T10:04:14;14.80;;;7.18;;
13051;SDS011;6592;47.484;9.726;2023-08-24T10:06:46;8.82;;;5.45;;
13051;SDS011;6592;47.484;9.726;2023-08-24T10:09:21;8.45;;;4.90;;
13051;SDS011;6592;47.484;9.726;2023-08-24T10:11:55;10.48;;;5.10;;
13051;SDS011;6592;47.484;9.726;2023-08-24T10:14:28;8.25;;;4.78;;
13051;SDS011;6592;47.484;9.726;2023-08-24T10:16:59;8.70;;;5.25;;
13051;SDS011;6592;47.484;9.726;2023-08-24T10:19:29;8.63;;;5.07;;
13051;SDS011;6592;47.484;9.726;2023-08-24T10:22:00;8.65;;;4.95;;
13051;SDS011;6592;47.484;9.726;2023-08-24T10:24:29;7.25;;;4.45;;
13051;SDS011;6592;47.484;9.726;2023-08-24T10:26:58;9.07;;;4.90;;
13051;SDS011;6592;47.484;9.726;2023-08-24T10:29:29;8.32;;;4.78;;
13051;SDS011;6592;47.484;9.726;2023-08-24T10:31:58;7.32;;;4.40;;
13051;SDS011;6592;47.484;9.726;2023-08-24T10:34:26;6.80;;;4.55;;
13051;SDS011;6592;47.484;9.726;2023-08-24T10:36:55;8.65;;;4.65;;
13051;SDS011;6592;47.484;9.726;2023-08-24T10:39:28;7.40;;;4.53;;
13051;SDS011;6592;47.484;9.726;2023-08-24T10:41:57;7.90;;;5.10;;
13051;SDS011;6592;47.484;9.726;2023-08-24T10:44:33;8.55;;;4.60;;
13051;SDS011;6592;47.484;9.726;2023-08-24T10:47:05;6.90;;;4.57;;
13051;SDS011;6592;47.484;9.726;2023-08-24T10:49:35;10.20;;;4.38;;
13051;SDS011;6592;47.484;9.726;2023-08-24T10:52:19;7.93;;;4.05;;
13051;SDS011;6592;47.484;9.726;2023-08-24T10:54:50;7.32;;;4.47;;
13051;SDS011;6592;47.484;9.726;2023-08-24T10:57:20;6.75;;;4.28;;
13051;SDS011;6592;47.484;9.726;2023-08-24T11:02:43;5.75;;;3.92;;
13051;SDS011;6592;47.484;9.726;2023-08-24T11:05:16;5.82;;;4.00;;
13051;SDS011;6592;47.484;9.726;2023-08-24T11:07:49;7.25;;;4.00;;
13051;SDS011;6592;47.484;9.726;2023-08-24T11:10:20;11.13;;;3.88;;
13051;SDS011;6592;47.484;9.726;2023-08-24T11:13:09;7.75;;;4.05;;
13051;SDS011;6592;47.484;9.726;2023-08-24T11:15:39;6.30;;;3.92;;
13051;SDS011;6592;47.484;9.726;2023-08-24T11:18:12;8.27;;;4.43;;
13051;SDS011;6592;47.484;9.726;2023-08-24T11:20:44;8.13;;;4.03;;
13051;SDS011;6592;47.484;9.726;2023-08-24T11:23:14;6.97;;;4.00;;
13051;SDS011;6592;47.484;9.726;2023-08-24T11:25:45;5.55;;;3.90;;
13051;SDS011;6592;47.484;9.726;2023-08-24T11:28:16;9.40;;;4.00;;
13051;SDS011;6592;47.484;9.726;2023-08-24T11:30:46;7.05;;;4.18;;
13051;SDS011;6592;47.484;9.726;2023-08-24T11:33:15;5.93;;;3.70;;
13051;SDS011;6592;47.484;9.726;2023-08-24T11:35:44;7.77;;;3.50;;
13051;SDS011;6592;47.484;9.726;2023-08-24T11:38:12;11.15;;;3.90;;
13051;SDS011;6592;47.484;9.726;2023-08-24T11:40:41;9.23;;;3.55;;
13051;SDS011;6592;47.484;9.726;2023-08-24T11:43:10;6.43;;;3.40;;
13051;SDS011;6592;47.484;9.726;2023-08-24T11:45:39;7.38;;;3.65;;
13051;SDS011;6592;47.484;9.726;2023-08-24T11:48:08;6.05;;;3.20;;
13051;SDS011;6592;47.484;9.726;2023-08-24T11:50:37;6.30;;;3.70;;
13051;SDS011;6592;47.484;9.726;2023-08-24T11:53:06;6.60;;;3.50;;
13051;SDS011;6592;47.484;9.726;2023-08-24T11:55:39;6.13;;;3.20;;
13051;SDS011;6592;47.484;9.726;2023-08-24T11:58:26;8.15;;;3.60;;
13051;SDS011;6592;47.484;9.726;2023-08-24T12:00:54;9.50;;;3.10;;
13051;SDS011;6592;47.484;9.726;2023-08-24T12:03:23;6.85;;;3.70;;
13051;SDS011;6592;47.484;9.726;2023-08-24T12:05:51;7.85;;;3.90;;
13051;SDS011;6592;47.484;9.726;2023-08-24T12:08:20;5.85;;;3.67;;
13051;SDS011;6592;47.484;9.726;2023-08-24T12:10:48;5.78;;;3.60;;
13051;SDS011;6592;47.484;9.726;2023-08-24T12:13:16;7.45;;;3.47;;
13051;SDS011;6592;47.484;9.726;2023-08-24T12:15:46;10.25;;;3.50;;
13051;SDS011;6592;47.484;9.726;2023-08-24T12:18:17;7.35;;;3.53;;
13051;SDS011;6592;47.484;9.726;2023-08-24T12:20:45;5.65;;;3.30;;
13051;SDS011;6592;47.484;9.726;2023-08-24T12:23:15;6.15;;;3.45;;
13051;SDS011;6592;47.484;9.726;2023-08-24T12:25:43;7.00;;;3.47;;
13051;SDS011;6592;47.484;9.726;2023-08-24T12:28:12;6.95;;;3.35;;
13051;SDS011;6592;47.484;9.726;2023-08-24T12:30:47;7.90;;;3.55;;
13051;SDS011;6592;47.484;9.726;2023-08-24T12:33:23;7.95;;;3.40;;
13051;SDS011;6592;47.484;9.726;2023-08-24T12:35:52;8.18;;;3.40;;
13051;SDS011;6592;47.484;9.726;2023-08-24T12:38:21;5.20;;;3.17;;
13051;SDS011;6592;47.484;9.726;2023-08-24T12:40:51;7.78;;;3.50;;
13051;SDS011;6592;47.484;9.726;2023-08-24T12:43:20;6.27;;;3.43;;
13051;SDS011;6592;47.484;9.726;2023-08-24T12:45:49;5.93;;;3.20;;
13051;SDS011;6592;47.484;9.726;2023-08-24T12:48:18;7.57;;;3.60;;
13051;SDS011;6592;47.484;9.726;2023-08-24T12:50:46;5.88;;;3.25;;
13051;SDS011;6592;47.484;9.726;2023-08-24T12:53:14;8.70;;;3.40;;
13051;SDS011;6592;47.484;9.726;2023-08-24T12:55:43;8.27;;;3.03;;
13051;SDS011;6592;47.484;9.726;2023-08-24T12:58:12;7.85;;;3.00;;
13051;SDS011;6592;47.484;9.726;2023-08-24T13:00:40;7.10;;;3.42;;
13051;SDS011;6592;47.484;9.726;2023-08-24T13:03:10;8.93;;;3.40;;
13051;SDS011;6592;47.484;9.726;2023-08-24T13:05:39;7.53;;;3.33;;
13051;SDS011;6592;47.484;9.726;2023-08-24T13:08:07;7.47;;;3.60;;
13051;SDS011;6592;47.484;9.726;2023-08-24T13:10:35;10.10;;;3.65;;
13051;SDS011;6592;47.484;9.726;2023-08-24T13:13:04;6.07;;;3.50;;
13051;SDS011;6592;47.484;9.726;2023-08-24T13:15:32;7.30;;;3.65;;
13051;SDS011;6592;47.484;9.726;2023-08-24T13:18:00;6.20;;;3.45;;
13051;SDS011;6592;47.484;9.726;2023-08-24T13:20:30;6.03;;;3.50;;
13051;SDS011;6592;47.484;9.726;2023-08-24T13:23:00;7.28;;;3.63;;
13051;SDS011;6592;47.484;9.726;2023-08-24T13:25:28;8.18;;;4.18;;
13051;SDS011;6592;47.484;9.726;2023-08-24T13:27:57;7.75;;;3.40;;
13051;SDS011;6592;47.484;9.726;2023-08-24T13:30:25;9.63;;;3.80;;
13051;SDS011;6592;47.484;9.726;2023-08-24T13:32:53;8.15;;;3.88;;
13051;SDS011;6592;47.484;9.726;2023-08-24T13:35:22;9.27;;;3.95;;
13051;SDS011;6592;47.484;9.726;2023-08-24T13:37:52;4.32;;;3.42;;
13051;SDS011;6592;47.484;9.726;2023-08-24T13:40:20;10.07;;;3.65;;
13051;SDS011;6592;47.484;9.726;2023-08-24T13:42:48;7.30;;;3.88;;
13051;SDS011;6592;47.484;9.726;2023-08-24T13:45:17;6.85;;;3.92;;
13051;SDS011;6592;47.484;9.726;2023-08-24T13:47:46;5.53;;;3.90;;
13051;SDS011;6592;47.484;9.726;2023-08-24T13:50:14;9.50;;;4.15;;
13051;SDS011;6592;47.484;9.726;2023-08-24T13:52:42;9.65;;;3.60;;
13051;SDS011;6592;47.484;9.726;2023-08-24T13:55:12;7.47;;;3.45;;
13051;SDS011;6592;47.484;9.726;2023-08-24T13:57:41;8.30;;;3.80;;
13051;SDS011;6592;47.484;9.726;2023-08-24T14:02:39;10.40;;;3.63;;
13051;SDS011;6592;47.484;9.726;2023-08-24T14:05:08;8.48;;;3.35;;
13051;SDS011;6592;47.484;9.726;2023-08-24T14:07:37;7.15;;;3.55;;
13051;SDS011;6592;47.484;9.726;2023-08-24T14:10:06;8.50;;;3.33;;
13051;SDS011;6592;47.484;9.726;2023-08-24T14:15:05;9.38;;;3.13;;
13051;SDS011;6592;47.484;9.726;2023-08-24T14:17:34;6.22;;;3.25;;
13051;SDS011;6592;47.484;9.726;2023-08-24T14:20:02;7.65;;;3.35;;
13051;SDS011;6592;47.484;9.726;2023-08-24T14:22:31;10.88;;;3.42;;
13051;SDS011;6592;47.484;9.726;2023-08-24T14:25:00;7.40;;;3.60;;
13051;SDS011;6592;47.484;9.726;2023-08-24T14:27:28;5.75;;;3.70;;
13051;SDS011;6592;47.484;9.726;2023-08-24T14:29:58;10.95;;;3.78;;
13051;SDS011;6592;47.484;9.726;2023-08-24T14:32:26;5.68;;;3.30;;
13051;SDS011;6592;47.484;9.726;2023-08-24T14:34:54;10.77;;;3.70;;
13051;SDS011;6592;47.484;9.726;2023-08-24T14:37:23;5.80;;;3.42;;
13051;SDS011;6592;47.484;9.726;2023-08-24T14:39:51;13.75;;;3.75;;
13051;SDS011;6592;47.484;9.726;2023-08-24T14:42:20;9.25;;;3.80;;
13051;SDS011;6592;47.484;9.726;2023-08-24T14:44:48;9.45;;;3.80;;
13051;SDS011;6592;47.484;9.726;2023-08-24T14:47:18;6.55;;;3.40;;
13051;SDS011;6592;47.484;9.726;2023-08-24T14:49:47;9.57;;;3.67;;
13051;SDS011;6592;47.484;9.726;2023-08-24T14:52:15;10.95;;;3.85;;
13051;SDS011;6592;47.484;9.726;2023-08-24T14:54:44;8.88;;;3.58;;
13051;SDS011;6592;47.484;9.726;2023-08-24T14:57:12;13.20;;;3.58;;
13051;SDS011;6592;47.484;9.726;2023-08-24T14:59:40;10.10;;;3.88;;
13051;SDS011;6592;47.484;9.726;2023-08-24T15:02:09;6.60;;;3.35;;
13051;SDS011;6592;47.484;9.726;2023-08-24T15:04:38;8.20;;;3.40;;
13051;SDS011;6592;47.484;9.726;2023-08-24T15:07:06;9.25;;;3.38;;
13051;SDS011;6592;47.484;9.726;2023-08-24T15:09:35;7.93;;;3.22;;
13051;SDS011;6592;47.484;9.726;2023-08-24T15:12:04;6.38;;;3.15;;
13051;SDS011;6592;47.484;9.726;2023-08-24T15:14:32;9.50;;;3.53;;
13051;SDS011;6592;47.484;9.726;2023-08-24T15:17:01;8.65;;;2.95;;
13051;SDS011;6592;47.484;9.726;2023-08-24T15:19:29;10.38;;;3.10;;
13051;SDS011;6592;47.484;9.726;2023-08-24T15:21:59;7.47;;;2.70;;
13051;SDS011;6592;47.484;9.726;2023-08-24T15:24:27;15.43;;;3.50;;
13051;SDS011;6592;47.484;9.726;2023-08-24T15:26:55;8.20;;;2.85;;